Pilot Magazine UKGA

About You

Log In Register UKGA membership

Flight planning

Flight planning New flightplan NOTAM map LARS map & NOTAMs Danger area, mil. & TRA activations Weather map GPS route download Find waypoints Your waypoints New waypoint

Forums

Forums Currently discussing "GP LAPL medical via CAA/Cellma"

Other items

Articles Events Links News Surveys Tips Other users Feedback UKGA membership About UKGA

METARs

UK

EGAA 250450Z AUTO 09002KT 4600 BR NCD 09/09 Q1011
EGAC 250450Z AUTO 16003KT 9999 NCD 14/12 Q1011
EGAE 241550Z 04012KT 9999 FEW032 24/16 Q1011
EGBB 250450Z 01006KT 9999 OVC009 15/13 Q1009
EGBJ 241820Z 03008KT 9999 FEW030 BKN040 21/15 Q1007
EGCC 250450Z AUTO 06003KT 9999 NCD 13/11 Q1009 NOSIG
EGCK 250450Z AUTO 05006KT 9999 NCD 14/12 Q1009
EGCN 250450Z 33006KT 9999 FEW031 14/13 Q1010
EGDM 250450Z AUTO 02008KT //// // BKN004/// BKN100/// 16/15 Q1007
EGDR 250450Z AUTO 33006KT 6000 // SCT003/// 16/16 Q1008
EGDY 250450Z AUTO 36005KT 8000 HZ OVC007/// 17/15 Q1007
EGEO 241550Z 27008KT 9999 FEW030 23/16 Q1011
EGFF 250450Z AUTO 03008KT 9999 SCT049 15/13 Q1008
EGGD 250450Z AUTO 02009KT 9999 OVC008 15/13 Q1008
EGGP 250450Z AUTO 02006KT 9999 NCD 14/12 Q1009
EGGW 250450Z AUTO 02006KT 1600 -DZ OVC002 16/16 Q1007
EGHC 241650Z 01009KT 9999 SCT018 19/16 Q1008
EGHE 241720Z 01010KT 9999 FEW010 19/16 Q1008
EGHH 242020Z 17002KT 9999 SCT032 18/15 Q1006
EGHI 241850Z VRB03KT 9999 FEW028TCU 21/13 Q1007 
EGHQ 250450Z AUTO 34006KT 9999 OVC030/// 16/15 Q1009
EGJA 241850Z 07010KT 9999 SCT022 FEW030TCU SCT043 16/16 Q1005
EGJB 250450Z 33008KT 4800 -SHRA FEW004 SCT010 BKN046 16/15 Q1006
EGJJ 250450Z 30010G20KT 270V340 1200 BR BKN002 15/15 Q1005
EGKA 241850Z 11002KT 9999 FEW030 20/14 Q1007
EGKB 242020Z 06007KT 4000 HZ NSC 16/16 Q1008 
EGKK 250450Z 04004KT 1900 -RA BKN007 17/16 Q1006
EGLC 250450Z AUTO VRB03KT 5000 HZ BKN007 OVC017 17/16 Q1007
EGLF 250450Z AUTO 01006KT 5000 HZ BKN008/// BKN016/// 17/15 Q1007
EGLL 250450Z AUTO 03004KT 9999 -RA SCT009 BKN017 17/15 Q1007 TEMPO BKN012
EGMC 250450Z 35003KT 3500 BR SCT011 BKN015 17/16 Q1006
EGMD 250450Z AUTO 16004KT 9999 FEW003/// SCT006/// BKN017/// 17/17 Q1006
EGNH 241850Z 09010KT 9999 FEW034 19/12 Q1010
EGNJ 250450Z AUTO 35006KT 9999 BKN004/// OVC019/// 15/15 Q1009
EGNM 250450Z 36005KT 9999 BKN030 14/11 Q1010
EGNR 241650Z 07007KT 9999 FEW039 23/12 Q1010
EGNS 250450Z 03004KT 9999 SCT020 15/13 Q1010 NOSIG
EGNT 250450Z 27002KT 9999 FEW020 BKN035 12/11 Q1011
EGNV 241920Z 07006KT 050V110 9999 BKN028 16/11 Q1012
EGNX 250450Z 36006KT 320V030 9999 FEW007 BKN018 14/13 Q1009
EGOM 250450Z AUTO 03004KT 8000 BR NCD 09/08 Q1011
EGOP 250450Z AUTO /////KT 9999 // FEW050/// 15/13 Q1008
EGOS 250450Z AUTO 34004KT 9999 BKN130/// 13/12 Q1009
EGOV 250450Z AUTO 04006KT 9999 SCT130/// 15/13 Q1009
EGPA 250450Z AUTO 13006KT 9999 NCD 12/11 Q1012
EGPB 250450Z AUTO 08003KT 9999 OVC027/// 13/12 Q1013
EGPC 250450Z AUTO 14006KT 9999 NCD 13/12 Q1011
EGPD 250450Z 01001KT 9999 VCFG NSC 08/08 Q1012
EGPE 250450Z AUTO 16002KT 0400 FG VV/// 13/12 Q1011
EGPF 250450Z AUTO 08007KT 9999 OVC020 15/11 Q1012
EGPH 250450Z 10001KT 8000 MIFG NSC 08/08 Q1011
EGPI 250450Z AUTO 11004KT 0300 FG BKN001/// 12/11 Q1010
EGPK 250450Z 00000KT 9999 R30/1400 NSC 11/10 Q1011
EGPL 250450Z AUTO 05001KT 0300 FG NCD 11/10 Q1011
EGPN 241450Z 08008KT 9999 FEW022 19/13 Q1013
EGPO 250450Z AUTO 34005KT 0500 FG VV/// 13/12 Q1012
EGPU 250450Z AUTO 01007KT 5000 BR NCD 13/13 Q1010
EGQK 250450Z AUTO 19004KT 3000 BR OVC002/// 13/13 Q1011
EGQL 250450Z 27005KT CAVOK 09/09 Q1012 RMK BLU
EGQM 250450Z AUTO 32006KT 9999 // BKN038/// 13/11 Q1010
EGQS 250450Z 18004KT 3000 BR OVC003 13/13 Q1011 RMK YLO2
EGSH 250450Z AUTO 02004KT 350V050 1600 BR OVC001/// 17/17 Q1007
EGSS 250450Z AUTO 35003KT 2800 BR BKN003 OVC013 16/16 Q1007
EGSY 241220Z 06013KT 9000 VCSH BKN017 18/14 Q1008
EGTC 241620Z 04014KT 9999 SCT033 21/15 Q1008
EGTE 241550Z 36005KT 330V040 9999 FEW012 BKN025TCU 20/17 Q1007
EGTK 242120Z 03007KT 010V070 9999 OVC024 17/15 Q1008
EGUB 250450Z AUTO 36007KT 5000 // OVC004/// 16/15 Q1007
EGUL 250456Z AUTO 34005KT 2600 BR CLR 17/15 A2972 RMK AO2 VIS 2600V3600 SLP067 T01670147 $
EGUN 250502Z AUTO 01003KT 2600 -RA BR OVC004 17/17 A2973 RMK AO2 RAB02 CIG 003 RWY28 SLP070 $
EGUW 250450Z AUTO 02003KT 1700 BR SCT002/// BKN006/// 16/16 Q1006
EGVA 250456Z AUTO 35006KT 6000 -RA BR OVC008 16/16 A2974 RMK AO2 DZB41E49RAB49 SLP072 P0000 T01570155 $
EGVN 250450Z 03009KT 4500 -RA BKN005 BKN007 16/15 Q1007 TEMPO SCT004
EGVO 250450Z AUTO 36005KT 3400 BR BKN004/// 17/15 Q1007 RERA
EGVP 250450Z AUTO 36006KT 4100 BR SCT008/// BKN140/// 16/15 Q1007 RERA
EGWU 250450Z AUTO 02007KT 6000 HZ SCT023/// BKN090/// 17/15 Q1007 RERA
EGXC 250450Z 34005KT 9999 FEW009 BKN020 15/14 Q1008 RMK WHT
EGXE 250450Z AUTO 35004KT 9999 OVC032/// 15/12 Q1010
EGXP 250450Z AUTO 33004KT 7000 // FEW004/// BKN023/// 13/13 Q1008
EGXS 250450Z AUTO 01012KT 8000 // FEW009/// BKN170/// 16/15 Q1008
EGXT 250450Z AUTO 35008KT 9999 SCT004/// BKN011/// 15/15 Q1007
EGXU 250450Z AUTO 33004KT 9999 OVC033/// 15/12 Q1009
EGXV 250450Z AUTO 33004KT 9999 FEW010/// BKN029/// 14/12 Q1009
EGXW 250450Z AUTO 33005KT 8000 HZ FEW005/// BKN020/// BKN170/// 14/12 Q1008
EGXZ 250450Z AUTO 35004KT 9999 SCT031/// 13/10 Q1010
EGYD 250450Z AUTO 34008KT 8000 // FEW009/// BKN019/// 14/14 Q1008
EGYM 250450Z AUTO 36007KT 2700 BR OVC003/// 17/16 Q1007
EGYP 250450Z 28012KT CAVOK 01/M00 Q1008

About You

Log In Register UKGA membership

Airfields

Interactive airfield map Search by name Search by postcode Search by location Fuel prices Pilot reviews Latest
(No favourites selected)

Flight planning

Flight planning New flightplan NOTAM map LARS map & NOTAMs Danger area, mil. & TRA activations Weather map GPS route download Find waypoints Your waypoints New waypoint

Forums

Forums Currently discussing "GP LAPL medical via CAA/Cellma"

Other items

Articles Events Links News Surveys Tips Other users Feedback UKGA membership About UKGA